sensor_id;sensor_type;location;lat;lon;timestamp;pressure;altitude;pressure_sealevel;temperature;humidity
59417;BME280;45222;52.458;20.914;2023-08-01T00:01:31;99827.48;;;18.19;70.73
59417;BME280;45222;52.458;20.914;2023-08-01T00:05:17;99823.75;;;18.21;70.48
59417;BME280;45222;52.458;20.914;2023-08-01T00:09:02;99825.39;;;18.21;70.25
59417;BME280;45222;52.458;20.914;2023-08-01T00:12:47;99821.85;;;18.24;70.30
59417;BME280;45222;52.458;20.914;2023-08-01T00:16:33;99818.61;;;18.28;70.19
59417;BME280;45222;52.458;20.914;2023-08-01T00:20:19;99816.59;;;18.33;69.98
59417;BME280;45222;52.458;20.914;2023-08-01T00:24:05;99820.57;;;18.37;69.63
59417;BME280;45222;52.458;20.914;2023-08-01T00:27:51;99817.41;;;18.40;69.45
59417;BME280;45222;52.458;20.914;2023-08-01T00:31:36;99819.32;;;18.41;69.21
59417;BME280;45222;52.458;20.914;2023-08-01T00:35:21;99810.51;;;18.41;69.03
59417;BME280;45222;52.458;20.914;2023-08-01T00:39:06;99808.40;;;18.40;69.00
59417;BME280;45222;52.458;20.914;2023-08-01T00:42:51;99801.75;;;18.40;69.11
59417;BME280;45222;52.458;20.914;2023-08-01T00:46:41;99800.39;;;18.43;69.20
59417;BME280;45222;52.458;20.914;2023-08-01T00:50:26;99792.45;;;18.45;69.06
59417;BME280;45222;52.458;20.914;2023-08-01T00:54:11;99789.39;;;18.47;68.76
59417;BME280;45222;52.458;20.914;2023-08-01T00:57:57;99788.99;;;18.47;68.54
59417;BME280;45222;52.458;20.914;2023-08-01T01:01:42;99782.41;;;18.46;68.57
59417;BME280;45222;52.458;20.914;2023-08-01T01:05:28;99779.39;;;18.46;68.53
59417;BME280;45222;52.458;20.914;2023-08-01T01:09:16;99776.34;;;18.44;68.47
59417;BME280;45222;52.458;20.914;2023-08-01T01:13:02;99772.72;;;18.44;68.66
59417;BME280;45222;52.458;20.914;2023-08-01T01:16:47;99766.89;;;18.47;68.87
59417;BME280;45222;52.458;20.914;2023-08-01T01:20:34;99761.02;;;18.50;68.85
59417;BME280;45222;52.458;20.914;2023-08-01T01:24:21;99761.34;;;18.50;68.61
59417;BME280;45222;52.458;20.914;2023-08-01T01:28:08;99758.30;;;18.50;68.52
59417;BME280;45222;52.458;20.914;2023-08-01T01:31:53;99750.65;;;18.49;68.33
59417;BME280;45222;52.458;20.914;2023-08-01T01:35:40;99744.43;;;18.46;68.13
59417;BME280;45222;52.458;20.914;2023-08-01T01:39:25;99741.02;;;18.44;68.16
59417;BME280;45222;52.458;20.914;2023-08-01T01:43:10;99738.80;;;18.45;68.51
59417;BME280;45222;52.458;20.914;2023-08-01T01:46:55;99733.16;;;18.47;68.49
59417;BME280;45222;52.458;20.914;2023-08-01T01:50:40;99724.33;;;18.49;68.36
59417;BME280;45222;52.458;20.914;2023-08-01T01:54:26;99721.10;;;18.51;68.11
59417;BME280;45222;52.458;20.914;2023-08-01T01:58:13;99713.55;;;18.51;68.10
59417;BME280;45222;52.458;20.914;2023-08-01T02:01:58;99709.94;;;18.49;68.26
59417;BME280;45222;52.458;20.914;2023-08-01T02:05:45;99696.35;;;18.46;68.09
59417;BME280;45222;52.458;20.914;2023-08-01T02:09:30;99691.13;;;18.43;68.46
59417;BME280;45222;52.458;20.914;2023-08-01T02:13:15;99686.19;;;18.40;68.94
59417;BME280;45222;52.458;20.914;2023-08-01T02:17:01;99679.03;;;18.37;69.26
59417;BME280;45222;52.458;20.914;2023-08-01T02:20:46;99675.85;;;18.37;69.15
59417;BME280;45222;52.458;20.914;2023-08-01T02:24:32;99671.18;;;18.34;68.97
59417;BME280;45222;52.458;20.914;2023-08-01T02:28:17;99665.53;;;18.33;68.99
59417;BME280;45222;52.458;20.914;2023-08-01T02:32:02;99665.47;;;18.32;69.00
59417;BME280;45222;52.458;20.914;2023-08-01T02:35:47;99655.33;;;18.27;68.66
59417;BME280;45222;52.458;20.914;2023-08-01T02:39:33;99646.95;;;18.24;68.92
59417;BME280;45222;52.458;20.914;2023-08-01T02:43:18;99644.23;;;18.18;69.28
59417;BME280;45222;52.458;20.914;2023-08-01T02:47:04;99638.76;;;18.09;69.82
59417;BME280;45222;52.458;20.914;2023-08-01T02:50:50;99638.10;;;17.94;70.10
59417;BME280;45222;52.458;20.914;2023-08-01T02:54:35;99628.27;;;17.82;70.33
59417;BME280;45222;52.458;20.914;2023-08-01T02:58:20;99629.08;;;17.69;71.12
59417;BME280;45222;52.458;20.914;2023-08-01T03:02:06;99630.46;;;17.55;71.51
59417;BME280;45222;52.458;20.914;2023-08-01T03:05:51;99627.08;;;17.49;71.80
59417;BME280;45222;52.458;20.914;2023-08-01T03:09:37;99622.78;;;17.47;72.33
59417;BME280;45222;52.458;20.914;2023-08-01T03:13:22;99618.23;;;17.43;73.19
59417;BME280;45222;52.458;20.914;2023-08-01T03:17:07;99613.98;;;17.40;73.33
59417;BME280;45222;52.458;20.914;2023-08-01T03:20:52;99610.10;;;17.37;73.80
59417;BME280;45222;52.458;20.914;2023-08-01T03:24:37;99605.65;;;17.35;73.99
59417;BME280;45222;52.458;20.914;2023-08-01T03:28:23;99607.71;;;17.36;74.00
59417;BME280;45222;52.458;20.914;2023-08-01T03:32:09;99603.58;;;17.40;73.94
59417;BME280;45222;52.458;20.914;2023-08-01T03:35:54;99604.39;;;17.45;73.74
59417;BME280;45222;52.458;20.914;2023-08-01T03:39:39;99596.83;;;17.48;73.67
59417;BME280;45222;52.458;20.914;2023-08-01T03:43:24;99590.48;;;17.48;73.63
59417;BME280;45222;52.458;20.914;2023-08-01T03:47:10;99590.64;;;17.50;74.03
59417;BME280;45222;52.458;20.914;2023-08-01T03:50:55;99583.21;;;17.53;74.05
59417;BME280;45222;52.458;20.914;2023-08-01T03:54:40;99580.62;;;17.58;74.07
59417;BME280;45222;52.458;20.914;2023-08-01T03:58:25;99573.67;;;17.63;73.78
59417;BME280;45222;52.458;20.914;2023-08-01T04:02:10;99577.39;;;17.67;73.97
59417;BME280;45222;52.458;20.914;2023-08-01T04:05:55;99576.78;;;17.68;74.25
59417;BME280;45222;52.458;20.914;2023-08-01T04:09:41;99575.45;;;17.71;73.76
59417;BME280;45222;52.458;20.914;2023-08-01T04:13:26;99575.30;;;17.75;73.99
59417;BME280;45222;52.458;20.914;2023-08-01T04:17:11;99574.33;;;17.80;73.72
59417;BME280;45222;52.458;20.914;2023-08-01T04:20:56;99572.36;;;17.80;73.78
59417;BME280;45222;52.458;20.914;2023-08-01T04:24:41;99565.55;;;17.79;73.32
59417;BME280;45222;52.458;20.914;2023-08-01T04:28:27;99563.95;;;17.83;73.41
59417;BME280;45222;52.458;20.914;2023-08-01T04:32:12;99562.89;;;17.89;73.76
59417;BME280;45222;52.458;20.914;2023-08-01T04:35:58;99555.85;;;17.95;73.50
59417;BME280;45222;52.458;20.914;2023-08-01T04:39:43;99556.52;;;18.03;73.35
59417;BME280;45222;52.458;20.914;2023-08-01T04:43:28;99551.91;;;18.12;73.01
59417;BME280;45222;52.458;20.914;2023-08-01T04:47:14;99546.14;;;18.22;72.57
59417;BME280;45222;52.458;20.914;2023-08-01T04:50:59;99544.63;;;18.31;72.37
59417;BME280;45222;52.458;20.914;2023-08-01T04:54:44;99545.31;;;18.41;72.23
59417;BME280;45222;52.458;20.914;2023-08-01T04:58:30;99539.83;;;18.53;72.20
59417;BME280;45222;52.458;20.914;2023-08-01T05:02:15;99538.12;;;18.75;72.05
59417;BME280;45222;52.458;20.914;2023-08-01T05:06:00;99530.94;;;18.97;71.41
59417;BME280;45222;52.458;20.914;2023-08-01T05:09:45;99528.38;;;19.22;70.79
59417;BME280;45222;52.458;20.914;2023-08-01T05:13:30;99528.52;;;19.48;69.49
59417;BME280;45222;52.458;20.914;2023-08-01T05:17:16;99527.36;;;19.74;68.09
59417;BME280;45222;52.458;20.914;2023-08-01T05:21:01;99518.06;;;19.97;67.76
59417;BME280;45222;52.458;20.914;2023-08-01T05:24:47;99520.94;;;20.13;66.37
59417;BME280;45222;52.458;20.914;2023-08-01T05:28:32;99519.44;;;20.21;65.60
59417;BME280;45222;52.458;20.914;2023-08-01T05:32:17;99514.50;;;20.23;64.87
59417;BME280;45222;52.458;20.914;2023-08-01T05:36:02;99510.34;;;20.25;64.64
59417;BME280;45222;52.458;20.914;2023-08-01T05:39:48;99507.16;;;20.24;63.93
59417;BME280;45222;52.458;20.914;2023-08-01T05:43:33;99503.94;;;20.24;63.53
59417;BME280;45222;52.458;20.914;2023-08-01T05:47:18;99501.23;;;20.26;63.55
59417;BME280;45222;52.458;20.914;2023-08-01T05:51:03;99499.66;;;20.31;63.69
59417;BME280;45222;52.458;20.914;2023-08-01T05:54:49;99500.73;;;20.36;63.30
59417;BME280;45222;52.458;20.914;2023-08-01T05:58:34;99503.80;;;20.40;62.66
59417;BME280;45222;52.458;20.914;2023-08-01T06:02:19;99506.41;;;20.41;62.42
59417;BME280;45222;52.458;20.914;2023-08-01T06:06:05;99505.50;;;20.41;62.15
59417;BME280;45222;52.458;20.914;2023-08-01T06:09:50;99500.23;;;20.43;62.30
59417;BME280;45222;52.458;20.914;2023-08-01T06:13:36;99498.38;;;20.45;62.05
59417;BME280;45222;52.458;20.914;2023-08-01T06:17:21;99486.67;;;20.48;61.87
59417;BME280;45222;52.458;20.914;2023-08-01T06:21:06;99483.21;;;20.52;61.51
59417;BME280;45222;52.458;20.914;2023-08-01T06:24:52;99481.77;;;20.61;61.39
59417;BME280;45222;52.458;20.914;2023-08-01T06:28:37;99476.84;;;20.77;60.86
59417;BME280;45222;52.458;20.914;2023-08-01T06:32:22;99476.10;;;20.96;60.78
59417;BME280;45222;52.458;20.914;2023-08-01T06:36:07;99467.39;;;21.15;60.22
59417;BME280;45222;52.458;20.914;2023-08-01T06:39:53;99469.70;;;21.31;60.28
59417;BME280;45222;52.458;20.914;2023-08-01T06:43:39;99464.48;;;21.47;59.81
59417;BME280;45222;52.458;20.914;2023-08-01T06:47:24;99459.11;;;21.60;59.68
59417;BME280;45222;52.458;20.914;2023-08-01T06:51:09;99453.83;;;21.74;58.95
59417;BME280;45222;52.458;20.914;2023-08-01T06:54:54;99453.11;;;21.87;59.00
59417;BME280;45222;52.458;20.914;2023-08-01T06:58:40;99448.44;;;22.00;58.83
59417;BME280;45222;52.458;20.914;2023-08-01T07:02:25;99450.08;;;22.11;58.19
59417;BME280;45222;52.458;20.914;2023-08-01T07:06:10;99438.65;;;22.24;57.77
59417;BME280;45222;52.458;20.914;2023-08-01T07:09:56;99439.17;;;22.40;56.93
59417;BME280;45222;52.458;20.914;2023-08-01T07:13:41;99436.17;;;22.56;56.76
59417;BME280;45222;52.458;20.914;2023-08-01T07:17:26;99432.43;;;22.73;55.96
59417;BME280;45222;52.458;20.914;2023-08-01T07:21:11;99424.91;;;22.93;56.42
59417;BME280;45222;52.458;20.914;2023-08-01T07:24:57;99420.78;;;23.11;55.67
59417;BME280;45222;52.458;20.914;2023-08-01T07:28:43;99415.23;;;23.28;54.93
59417;BME280;45222;52.458;20.914;2023-08-01T07:32:31;99419.96;;;23.44;55.01
59417;BME280;45222;52.458;20.914;2023-08-01T07:36:16;99411.25;;;23.59;55.37
59417;BME280;45222;52.458;20.914;2023-08-01T07:40:01;99410.93;;;23.72;54.81
59417;BME280;45222;52.458;20.914;2023-08-01T07:43:47;99404.63;;;23.84;54.37
59417;BME280;45222;52.458;20.914;2023-08-01T07:47:33;99407.35;;;23.90;53.42
59417;BME280;45222;52.458;20.914;2023-08-01T07:51:18;99402.17;;;23.97;53.49
59417;BME280;45222;52.458;20.914;2023-08-01T07:55:06;99400.93;;;24.09;53.63
59417;BME280;45222;52.458;20.914;2023-08-01T07:58:51;99396.23;;;24.23;53.27
59417;BME280;45222;52.458;20.914;2023-08-01T08:02:37;99394.77;;;24.38;53.20
59417;BME280;45222;52.458;20.914;2023-08-01T08:06:23;99392.97;;;24.55;53.13
59417;BME280;45222;52.458;20.914;2023-08-01T08:10:09;99394.92;;;24.66;52.99
59417;BME280;45222;52.458;20.914;2023-08-01T08:13:54;99388.14;;;24.59;52.07
59417;BME280;45222;52.458;20.914;2023-08-01T08:17:39;99387.77;;;24.49;52.33
59417;BME280;45222;52.458;20.914;2023-08-01T08:21:24;99383.63;;;24.38;52.25
59417;BME280;45222;52.458;20.914;2023-08-01T08:25:09;99381.84;;;24.21;52.12
59417;BME280;45222;52.458;20.914;2023-08-01T08:28:54;99375.88;;;24.03;52.11
59417;BME280;45222;52.458;20.914;2023-08-01T08:32:40;99376.27;;;23.91;52.96
59417;BME280;45222;52.458;20.914;2023-08-01T08:36:25;99373.68;;;23.91;53.09
59417;BME280;45222;52.458;20.914;2023-08-01T08:40:12;99372.08;;;23.95;53.04
59417;BME280;45222;52.458;20.914;2023-08-01T08:43:58;99375.20;;;23.95;51.98
59417;BME280;45222;52.458;20.914;2023-08-01T08:47:45;99369.77;;;23.93;52.95
59417;BME280;45222;52.458;20.914;2023-08-01T08:51:36;99372.02;;;23.93;52.99
59417;BME280;45222;52.458;20.914;2023-08-01T08:55:22;99371.77;;;23.89;52.78
59417;BME280;45222;52.458;20.914;2023-08-01T08:59:08;99370.92;;;23.85;53.01
59417;BME280;45222;52.458;20.914;2023-08-01T09:02:54;99364.61;;;23.90;53.23
59417;BME280;45222;52.458;20.914;2023-08-01T09:06:43;99360.76;;;23.93;53.19
59417;BME280;45222;52.458;20.914;2023-08-01T09:10:29;99353.86;;;23.97;53.43
59417;BME280;45222;52.458;20.914;2023-08-01T09:14:16;99357.25;;;24.05;53.33
59417;BME280;45222;52.458;20.914;2023-08-01T09:18:06;99352.39;;;24.17;53.24
59417;BME280;45222;52.458;20.914;2023-08-01T09:21:52;99344.73;;;24.29;53.21
59417;BME280;45222;52.458;20.914;2023-08-01T09:25:37;99338.32;;;24.42;52.67
59417;BME280;45222;52.458;20.914;2023-08-01T09:29:22;99332.16;;;24.53;52.95
59417;BME280;45222;52.458;20.914;2023-08-01T09:33:09;99322.56;;;24.65;52.64
59417;BME280;45222;52.458;20.914;2023-08-01T09:36:59;99330.54;;;24.72;52.48
59417;BME280;45222;52.458;20.914;2023-08-01T09:40:45;99332.27;;;24.79;52.14
59417;BME280;45222;52.458;20.914;2023-08-01T09:44:31;99326.16;;;24.83;51.55
59417;BME280;45222;52.458;20.914;2023-08-01T09:48:25;99325.26;;;24.92;51.57
59417;BME280;45222;52.458;20.914;2023-08-01T09:52:11;99324.54;;;25.00;51.45
59417;BME280;45222;52.458;20.914;2023-08-01T09:55:56;99319.88;;;25.04;50.81
59417;BME280;45222;52.458;20.914;2023-08-01T09:59:43;99314.56;;;25.01;51.00
59417;BME280;45222;52.458;20.914;2023-08-01T10:03:29;99316.41;;;24.85;50.99
59417;BME280;45222;52.458;20.914;2023-08-01T10:07:15;99319.10;;;24.68;51.67
59417;BME280;45222;52.458;20.914;2023-08-01T10:11:06;99320.20;;;24.52;52.02
59417;BME280;45222;52.458;20.914;2023-08-01T10:14:51;99321.65;;;24.36;52.33
59417;BME280;45222;52.458;20.914;2023-08-01T10:18:38;99327.20;;;24.20;53.19
59417;BME280;45222;52.458;20.914;2023-08-01T10:22:24;99327.84;;;24.02;53.88
59417;BME280;45222;52.458;20.914;2023-08-01T10:26:10;99334.14;;;23.77;54.80
59417;BME280;45222;52.458;20.914;2023-08-01T10:29:59;99334.56;;;23.52;56.17
59417;BME280;45222;52.458;20.914;2023-08-01T10:33:47;99337.90;;;23.32;57.37
59417;BME280;45222;52.458;20.914;2023-08-01T10:37:43;99334.75;;;23.17;58.24
59417;BME280;45222;52.458;20.914;2023-08-01T10:41:30;99343.33;;;22.94;58.49
59417;BME280;45222;52.458;20.914;2023-08-01T10:45:23;99342.55;;;22.68;59.63
59417;BME280;45222;52.458;20.914;2023-08-01T10:49:12;99341.48;;;22.43;60.69
59417;BME280;45222;52.458;20.914;2023-08-01T10:53:04;99339.88;;;22.23;61.56
59417;BME280;45222;52.458;20.914;2023-08-01T10:56:51;99334.95;;;22.14;62.66
59417;BME280;45222;52.458;20.914;2023-08-01T11:00:38;99331.58;;;22.17;63.79
59417;BME280;45222;52.458;20.914;2023-08-01T11:04:24;99330.95;;;22.20;64.26
59417;BME280;45222;52.458;20.914;2023-08-01T11:08:09;99328.38;;;22.26;64.67
59417;BME280;45222;52.458;20.914;2023-08-01T11:11:56;99323.59;;;22.34;64.87
59417;BME280;45222;52.458;20.914;2023-08-01T11:15:41;99325.27;;;22.39;64.88
59417;BME280;45222;52.458;20.914;2023-08-01T11:19:28;99322.19;;;22.40;64.93
59417;BME280;45222;52.458;20.914;2023-08-01T11:23:13;99318.22;;;22.48;65.55
59417;BME280;45222;52.458;20.914;2023-08-01T11:26:59;99317.66;;;22.66;65.99
59417;BME280;45222;52.458;20.914;2023-08-01T11:30:44;99311.17;;;22.95;66.20
59417;BME280;45222;52.458;20.914;2023-08-01T11:34:40;99312.58;;;23.25;65.89
59417;BME280;45222;52.458;20.914;2023-08-01T11:38:26;99311.77;;;23.50;65.48
59417;BME280;45222;52.458;20.914;2023-08-01T11:42:16;99307.58;;;23.73;64.99
59417;BME280;45222;52.458;20.914;2023-08-01T11:46:01;99305.87;;;23.87;64.06
59417;BME280;45222;52.458;20.914;2023-08-01T11:49:48;99306.97;;;23.94;63.33
59417;BME280;45222;52.458;20.914;2023-08-01T11:53:33;99308.14;;;23.97;62.72
59417;BME280;45222;52.458;20.914;2023-08-01T11:57:23;99300.41;;;24.02;62.36
59417;BME280;45222;52.458;20.914;2023-08-01T12:01:10;99292.93;;;24.12;62.02
59417;BME280;45222;52.458;20.914;2023-08-01T12:04:55;99285.48;;;24.16;60.79
59417;BME280;45222;52.458;20.914;2023-08-01T12:08:42;99273.26;;;24.24;60.64
59417;BME280;45222;52.458;20.914;2023-08-01T12:12:28;99269.16;;;24.32;60.18
59417;BME280;45222;52.458;20.914;2023-08-01T12:16:13;99265.75;;;24.35;60.36
59417;BME280;45222;52.458;20.914;2023-08-01T12:20:00;99254.95;;;24.42;60.01
59417;BME280;45222;52.458;20.914;2023-08-01T12:23:46;99249.39;;;24.38;59.91
59417;BME280;45222;52.458;20.914;2023-08-01T12:27:31;99243.00;;;24.29;59.35
59417;BME280;45222;52.458;20.914;2023-08-01T12:31:20;99250.73;;;24.22;59.19
59417;BME280;45222;52.458;20.914;2023-08-01T12:35:07;99246.11;;;24.19;59.17
59417;BME280;45222;52.458;20.914;2023-08-01T12:38:52;99246.35;;;24.20;59.45
59417;BME280;45222;52.458;20.914;2023-08-01T12:42:37;99240.85;;;24.19;59.11
59417;BME280;45222;52.458;20.914;2023-08-01T12:46:22;99232.34;;;24.13;58.59
59417;BME280;45222;52.458;20.914;2023-08-01T12:50:09;99227.27;;;24.00;58.76
59417;BME280;45222;52.458;20.914;2023-08-01T12:53:54;99224.84;;;23.94;58.99
59417;BME280;45222;52.458;20.914;2023-08-01T12:57:40;99226.48;;;23.86;59.43
59417;BME280;45222;52.458;20.914;2023-08-01T13:01:25;99220.74;;;23.84;59.55
59417;BME280;45222;52.458;20.914;2023-08-01T13:05:11;99221.75;;;23.88;59.45
59417;BME280;45222;52.458;20.914;2023-08-01T13:08:56;99218.32;;;23.92;59.23
59417;BME280;45222;52.458;20.914;2023-08-01T13:12:41;99215.37;;;23.94;59.05
59417;BME280;45222;52.458;20.914;2023-08-01T13:16:26;99217.77;;;24.01;59.00
59417;BME280;45222;52.458;20.914;2023-08-01T13:20:12;99213.91;;;24.14;59.01
59417;BME280;45222;52.458;20.914;2023-08-01T13:23:57;99211.67;;;24.24;58.55
59417;BME280;45222;52.458;20.914;2023-08-01T13:27:42;99209.74;;;24.31;58.14
59417;BME280;45222;52.458;20.914;2023-08-01T13:31:27;99205.29;;;24.30;57.95
59417;BME280;45222;52.458;20.914;2023-08-01T13:35:13;99195.46;;;24.38;58.15
59417;BME280;45222;52.458;20.914;2023-08-01T13:38:59;99189.45;;;24.44;57.87
59417;BME280;45222;52.458;20.914;2023-08-01T13:42:44;99182.57;;;24.48;58.05
59417;BME280;45222;52.458;20.914;2023-08-01T13:46:30;99184.17;;;24.45;57.50
59417;BME280;45222;52.458;20.914;2023-08-01T13:50:16;99181.17;;;24.30;57.04
59417;BME280;45222;52.458;20.914;2023-08-01T13:54:01;99178.99;;;24.11;57.41
59417;BME280;45222;52.458;20.914;2023-08-01T13:57:46;99176.17;;;23.98;57.99
59417;BME280;45222;52.458;20.914;2023-08-01T14:01:31;99173.52;;;23.87;58.05
59417;BME280;45222;52.458;20.914;2023-08-01T14:05:17;99166.17;;;23.79;58.39
59417;BME280;45222;52.458;20.914;2023-08-01T14:09:02;99155.73;;;23.77;58.88
59417;BME280;45222;52.458;20.914;2023-08-01T14:12:48;99155.48;;;23.77;58.57
59417;BME280;45222;52.458;20.914;2023-08-01T14:16:33;99157.20;;;23.78;58.69
59417;BME280;45222;52.458;20.914;2023-08-01T14:20:19;99153.07;;;23.69;58.77
59417;BME280;45222;52.458;20.914;2023-08-01T14:24:04;99153.10;;;23.57;59.10
59417;BME280;45222;52.458;20.914;2023-08-01T14:27:49;99156.80;;;23.42;59.64
59417;BME280;45222;52.458;20.914;2023-08-01T14:31:35;99166.34;;;23.13;61.94
59417;BME280;45222;52.458;20.914;2023-08-01T14:35:20;99178.84;;;22.69;63.76
59417;BME280;45222;52.458;20.914;2023-08-01T14:39:06;99182.29;;;22.28;66.55
59417;BME280;45222;52.458;20.914;2023-08-01T14:42:51;99166.94;;;21.81;68.31
59417;BME280;45222;52.458;20.914;2023-08-01T14:46:37;99161.73;;;21.48;69.59
59417;BME280;45222;52.458;20.914;2023-08-01T14:50:23;99152.55;;;21.32;70.24
59417;BME280;45222;52.458;20.914;2023-08-01T14:54:09;99147.97;;;21.21;71.13
59417;BME280;45222;52.458;20.914;2023-08-01T14:57:54;99139.89;;;21.17;71.93
59417;BME280;45222;52.458;20.914;2023-08-01T15:01:39;99136.04;;;21.15;72.70
59417;BME280;45222;52.458;20.914;2023-08-01T15:05:26;99134.48;;;21.16;73.46
59417;BME280;45222;52.458;20.914;2023-08-01T15:09:11;99127.19;;;21.23;73.96
59417;BME280;45222;52.458;20.914;2023-08-01T15:12:56;99121.17;;;21.33;74.32
59417;BME280;45222;52.458;20.914;2023-08-01T15:16:41;99117.52;;;21.43;74.08
59417;BME280;45222;52.458;20.914;2023-08-01T15:20:27;99115.04;;;21.50;74.35
59417;BME280;45222;52.458;20.914;2023-08-01T15:24:12;99115.82;;;21.62;74.36
59417;BME280;45222;52.458;20.914;2023-08-01T15:27:57;99106.58;;;21.74;74.27
59417;BME280;45222;52.458;20.914;2023-08-01T15:31:42;99110.63;;;21.84;74.44
59417;BME280;45222;52.458;20.914;2023-08-01T15:35:29;99107.81;;;21.90;74.04
59417;BME280;45222;52.458;20.914;2023-08-01T15:39:14;99103.80;;;21.92;74.04
59417;BME280;45222;52.458;20.914;2023-08-01T15:42:59;99095.59;;;21.95;73.70
59417;BME280;45222;52.458;20.914;2023-08-01T15:46:44;99103.84;;;21.96;73.82
59417;BME280;45222;52.458;20.914;2023-08-01T15:50:30;99107.13;;;22.01;73.98
59417;BME280;45222;52.458;20.914;2023-08-01T15:54:15;99104.92;;;21.96;73.67
59417;BME280;45222;52.458;20.914;2023-08-01T15:58:04;99106.86;;;21.90;73.31
59417;BME280;45222;52.458;20.914;2023-08-01T16:01:49;99109.78;;;21.79;73.13
59417;BME280;45222;52.458;20.914;2023-08-01T16:05:34;99117.96;;;21.69;73.30
59417;BME280;45222;52.458;20.914;2023-08-01T16:09:20;99120.48;;;21.58;73.42
59417;BME280;45222;52.458;20.914;2023-08-01T16:13:05;99116.95;;;21.48;73.71
59417;BME280;45222;52.458;20.914;2023-08-01T16:16:50;99114.58;;;21.40;73.78
59417;BME280;45222;52.458;20.914;2023-08-01T16:20:36;99109.81;;;21.37;73.85
59417;BME280;45222;52.458;20.914;2023-08-01T16:24:21;99108.73;;;21.42;74.32
59417;BME280;45222;52.458;20.914;2023-08-01T16:28:07;99107.86;;;21.48;74.24
59417;BME280;45222;52.458;20.914;2023-08-01T16:31:52;99109.73;;;21.54;74.17
59417;BME280;45222;52.458;20.914;2023-08-01T16:35:37;99099.71;;;21.61;73.65
59417;BME280;45222;52.458;20.914;2023-08-01T16:39:22;99093.89;;;21.64;73.44
59417;BME280;45222;52.458;20.914;2023-08-01T16:43:08;99106.40;;;21.61;73.56
59417;BME280;45222;52.458;20.914;2023-08-01T16:46:54;99111.59;;;21.55;73.68
59417;BME280;45222;52.458;20.914;2023-08-01T16:50:39;99116.52;;;21.47;73.86
59417;BME280;45222;52.458;20.914;2023-08-01T16:54:24;99111.48;;;21.42;74.20
59417;BME280;45222;52.458;20.914;2023-08-01T16:58:11;99106.02;;;21.42;74.09
59417;BME280;45222;52.458;20.914;2023-08-01T17:01:56;99106.91;;;21.41;73.84
59417;BME280;45222;52.458;20.914;2023-08-01T17:05:42;99112.19;;;21.34;73.70
59417;BME280;45222;52.458;20.914;2023-08-01T17:09:27;99115.75;;;21.28;73.75
59417;BME280;45222;52.458;20.914;2023-08-01T17:13:12;99111.54;;;21.22;73.68
59417;BME280;45222;52.458;20.914;2023-08-01T17:16:57;99122.04;;;21.14;73.43
59417;BME280;45222;52.458;20.914;2023-08-01T17:20:43;99122.97;;;21.05;73.55
59417;BME280;45222;52.458;20.914;2023-08-01T17:24:29;99131.44;;;20.98;73.60
59417;BME280;45222;52.458;20.914;2023-08-01T17:28:15;99138.57;;;20.92;73.70
59417;BME280;45222;52.458;20.914;2023-08-01T17:32:00;99139.48;;;20.87;73.73
59417;BME280;45222;52.458;20.914;2023-08-01T17:35:47;99142.21;;;20.82;73.77
59417;BME280;45222;52.458;20.914;2023-08-01T17:39:32;99143.82;;;20.74;73.69
59417;BME280;45222;52.458;20.914;2023-08-01T17:43:18;99141.77;;;20.64;73.59
59417;BME280;45222;52.458;20.914;2023-08-01T17:47:04;99144.25;;;20.58;73.58
59417;BME280;45222;52.458;20.914;2023-08-01T17:50:50;99145.73;;;20.55;73.72
59417;BME280;45222;52.458;20.914;2023-08-01T17:54:35;99148.11;;;20.51;73.79
59417;BME280;45222;52.458;20.914;2023-08-01T17:58:20;99148.81;;;20.46;73.73
59417;BME280;45222;52.458;20.914;2023-08-01T18:02:06;99144.89;;;20.41;73.55
59417;BME280;45222;52.458;20.914;2023-08-01T18:06:02;99151.15;;;20.35;73.55
59417;BME280;45222;52.458;20.914;2023-08-01T18:09:48;99157.14;;;20.26;73.61
59417;BME280;45222;52.458;20.914;2023-08-01T18:13:33;99158.44;;;20.22;73.90
59417;BME280;45222;52.458;20.914;2023-08-01T18:17:19;99161.06;;;20.20;74.25
59417;BME280;45222;52.458;20.914;2023-08-01T18:21:05;99161.60;;;20.17;74.59
59417;BME280;45222;52.458;20.914;2023-08-01T18:24:52;99159.70;;;20.12;74.50
59417;BME280;45222;52.458;20.914;2023-08-01T18:28:37;99159.39;;;20.07;74.52
59417;BME280;45222;52.458;20.914;2023-08-01T18:32:22;99165.14;;;20.04;74.63
59417;BME280;45222;52.458;20.914;2023-08-01T18:36:12;99177.24;;;20.02;74.91
59417;BME280;45222;52.458;20.914;2023-08-01T18:39:57;99187.73;;;19.98;75.72
59417;BME280;45222;52.458;20.914;2023-08-01T18:43:42;99220.65;;;19.89;76.54
59417;BME280;45222;52.458;20.914;2023-08-01T18:47:28;99225.50;;;19.73;77.05
59417;BME280;45222;52.458;20.914;2023-08-01T18:51:14;99222.20;;;19.60;77.78
59417;BME280;45222;52.458;20.914;2023-08-01T18:55:00;99226.16;;;19.48;78.15
59417;BME280;45222;52.458;20.914;2023-08-01T18:58:46;99224.71;;;19.41;78.01
59417;BME280;45222;52.458;20.914;2023-08-01T19:02:31;99221.55;;;19.37;77.77
59417;BME280;45222;52.458;20.914;2023-08-01T19:06:17;99220.87;;;19.36;77.84
59417;BME280;45222;52.458;20.914;2023-08-01T19:10:05;99215.52;;;19.36;77.70
59417;BME280;45222;52.458;20.914;2023-08-01T19:13:50;99215.56;;;19.36;77.96
59417;BME280;45222;52.458;20.914;2023-08-01T19:17:38;99213.27;;;19.33;78.15
59417;BME280;45222;52.458;20.914;2023-08-01T19:21:23;99214.95;;;19.31;78.44
59417;BME280;45222;52.458;20.914;2023-08-01T19:25:09;99214.15;;;19.32;78.79
59417;BME280;45222;52.458;20.914;2023-08-01T19:28:54;99214.71;;;19.32;78.94
59417;BME280;45222;52.458;20.914;2023-08-01T19:32:39;99215.86;;;19.31;79.08
59417;BME280;45222;52.458;20.914;2023-08-01T19:36:25;99219.08;;;19.31;79.29
59417;BME280;45222;52.458;20.914;2023-08-01T19:40:11;99229.77;;;19.27;79.61